Terminal Aerodrome Forecast
Issued by NWS Green Bay, WI

Home | Current Version | Previous Version | Graphics & Text | Print | Product List | Glossary On
Versions: 1 2 3 4 5 6 7 8 9 10 11 12 13 14 15 16 17 18 19 20 21 22 23 24 25 26 27 28 29 30 31 32 33 34 35 36
000
FTUS43 KGRB 021734
TAFGRB
TAF
KGRB 021734Z 0218/0318 22015G25KT P6SM SCT035 BKN250
     FM022200 25014G25KT P6SM SCT035
      TEMPO 0223/0301 3SM TSRA BR BKN035CB
     FM030100 34011G18KT P6SM SCT035
     FM030400 31007KT P6SM SCT035=

USA.gov is the U.S. government's official web portal to all federal, state and local government web resources and services.